sensor_id;sensor_type;location;lat;lon;timestamp;P1;durP1;ratioP1;P2;durP2;ratioP2
10882;SDS011;5494;51.796;10.952;2023-09-30T00:00:06;7.67;;;3.17;;
10882;SDS011;5494;51.796;10.952;2023-09-30T00:02:36;9.37;;;4.33;;
10882;SDS011;5494;51.796;10.952;2023-09-30T00:05:05;13.43;;;3.33;;
10882;SDS011;5494;51.796;10.952;2023-09-30T00:07:34;6.77;;;3.00;;
10882;SDS011;5494;51.796;10.952;2023-09-30T00:10:03;8.77;;;2.60;;
10882;SDS011;5494;51.796;10.952;2023-09-30T00:12:34;10.47;;;4.10;;
10882;SDS011;5494;51.796;10.952;2023-09-30T00:15:03;6.23;;;2.60;;
10882;SDS011;5494;51.796;10.952;2023-09-30T00:17:32;10.70;;;3.37;;
10882;SDS011;5494;51.796;10.952;2023-09-30T00:20:00;7.57;;;3.20;;
10882;SDS011;5494;51.796;10.952;2023-09-30T00:22:30;5.87;;;2.57;;
10882;SDS011;5494;51.796;10.952;2023-09-30T00:24:59;8.87;;;3.60;;
10882;SDS011;5494;51.796;10.952;2023-09-30T00:27:28;10.63;;;3.37;;
10882;SDS011;5494;51.796;10.952;2023-09-30T00:29:56;9.50;;;3.40;;
10882;SDS011;5494;51.796;10.952;2023-09-30T00:32:24;9.23;;;3.30;;
10882;SDS011;5494;51.796;10.952;2023-09-30T00:34:52;9.20;;;4.50;;
10882;SDS011;5494;51.796;10.952;2023-09-30T00:37:21;10.10;;;3.60;;
10882;SDS011;5494;51.796;10.952;2023-09-30T00:39:49;9.10;;;3.27;;
10882;SDS011;5494;51.796;10.952;2023-09-30T00:42:17;12.27;;;3.40;;
10882;SDS011;5494;51.796;10.952;2023-09-30T00:44:48;9.63;;;3.37;;
10882;SDS011;5494;51.796;10.952;2023-09-30T00:47:16;8.33;;;3.50;;
10882;SDS011;5494;51.796;10.952;2023-09-30T00:49:46;12.10;;;3.63;;
10882;SDS011;5494;51.796;10.952;2023-09-30T00:52:16;9.20;;;3.60;;
10882;SDS011;5494;51.796;10.952;2023-09-30T00:54:45;7.97;;;3.87;;
10882;SDS011;5494;51.796;10.952;2023-09-30T00:57:15;11.93;;;3.97;;
10882;SDS011;5494;51.796;10.952;2023-09-30T00:59:45;14.43;;;3.77;;
10882;SDS011;5494;51.796;10.952;2023-09-30T01:02:17;10.83;;;3.57;;
10882;SDS011;5494;51.796;10.952;2023-09-30T01:04:45;9.87;;;2.83;;
10882;SDS011;5494;51.796;10.952;2023-09-30T01:07:14;11.13;;;3.90;;
10882;SDS011;5494;51.796;10.952;2023-09-30T01:09:44;10.93;;;3.53;;
10882;SDS011;5494;51.796;10.952;2023-09-30T01:12:12;12.97;;;5.13;;
10882;SDS011;5494;51.796;10.952;2023-09-30T01:14:40;9.67;;;3.43;;
10882;SDS011;5494;51.796;10.952;2023-09-30T01:17:10;9.73;;;2.83;;
10882;SDS011;5494;51.796;10.952;2023-09-30T01:19:40;11.30;;;3.33;;
10882;SDS011;5494;51.796;10.952;2023-09-30T01:22:10;9.17;;;3.60;;
10882;SDS011;5494;51.796;10.952;2023-09-30T01:24:38;9.93;;;3.60;;
10882;SDS011;5494;51.796;10.952;2023-09-30T01:27:08;12.93;;;3.40;;
10882;SDS011;5494;51.796;10.952;2023-09-30T01:29:37;12.03;;;3.47;;
10882;SDS011;5494;51.796;10.952;2023-09-30T01:32:05;9.43;;;2.73;;
10882;SDS011;5494;51.796;10.952;2023-09-30T01:34:35;8.10;;;2.60;;
10882;SDS011;5494;51.796;10.952;2023-09-30T01:37:03;9.27;;;2.87;;
10882;SDS011;5494;51.796;10.952;2023-09-30T01:39:33;10.33;;;3.07;;
10882;SDS011;5494;51.796;10.952;2023-09-30T01:42:01;11.60;;;3.20;;
10882;SDS011;5494;51.796;10.952;2023-09-30T01:44:32;8.30;;;3.20;;
10882;SDS011;5494;51.796;10.952;2023-09-30T01:47:00;6.93;;;3.30;;
10882;SDS011;5494;51.796;10.952;2023-09-30T01:49:28;11.33;;;3.80;;
10882;SDS011;5494;51.796;10.952;2023-09-30T01:51:57;7.47;;;2.93;;
10882;SDS011;5494;51.796;10.952;2023-09-30T01:54:25;6.97;;;2.73;;
10882;SDS011;5494;51.796;10.952;2023-09-30T01:56:55;11.83;;;3.50;;
10882;SDS011;5494;51.796;10.952;2023-09-30T01:59:25;12.23;;;2.70;;
10882;SDS011;5494;51.796;10.952;2023-09-30T02:01:54;8.90;;;3.10;;
10882;SDS011;5494;51.796;10.952;2023-09-30T02:04:22;14.07;;;3.40;;
10882;SDS011;5494;51.796;10.952;2023-09-30T02:06:50;9.73;;;2.50;;
10882;SDS011;5494;51.796;10.952;2023-09-30T02:09:18;8.00;;;3.20;;
10882;SDS011;5494;51.796;10.952;2023-09-30T02:11:46;11.40;;;2.77;;
10882;SDS011;5494;51.796;10.952;2023-09-30T02:14:16;12.30;;;3.63;;
10882;SDS011;5494;51.796;10.952;2023-09-30T02:16:44;10.73;;;3.00;;
10882;SDS011;5494;51.796;10.952;2023-09-30T02:19:12;12.63;;;2.90;;
10882;SDS011;5494;51.796;10.952;2023-09-30T02:21:40;8.20;;;2.27;;
10882;SDS011;5494;51.796;10.952;2023-09-30T02:24:08;6.83;;;2.77;;
10882;SDS011;5494;51.796;10.952;2023-09-30T02:26:37;8.93;;;2.80;;
10882;SDS011;5494;51.796;10.952;2023-09-30T02:29:05;8.73;;;2.50;;
10882;SDS011;5494;51.796;10.952;2023-09-30T02:31:35;11.37;;;3.20;;
10882;SDS011;5494;51.796;10.952;2023-09-30T02:34:05;10.97;;;2.60;;
10882;SDS011;5494;51.796;10.952;2023-09-30T02:36:33;7.90;;;2.70;;
10882;SDS011;5494;51.796;10.952;2023-09-30T02:39:06;8.33;;;2.90;;
10882;SDS011;5494;51.796;10.952;2023-09-30T02:41:35;11.87;;;2.97;;
10882;SDS011;5494;51.796;10.952;2023-09-30T02:44:04;6.60;;;2.30;;
10882;SDS011;5494;51.796;10.952;2023-09-30T02:46:33;11.50;;;2.77;;
10882;SDS011;5494;51.796;10.952;2023-09-30T02:49:02;8.27;;;2.67;;
10882;SDS011;5494;51.796;10.952;2023-09-30T02:51:30;10.53;;;2.60;;
10882;SDS011;5494;51.796;10.952;2023-09-30T02:53:59;9.73;;;2.40;;
10882;SDS011;5494;51.796;10.952;2023-09-30T02:56:28;10.20;;;3.10;;
10882;SDS011;5494;51.796;10.952;2023-09-30T02:58:57;6.97;;;2.90;;
10882;SDS011;5494;51.796;10.952;2023-09-30T03:01:26;13.07;;;2.97;;
10882;SDS011;5494;51.796;10.952;2023-09-30T03:03:54;11.37;;;2.93;;
10882;SDS011;5494;51.796;10.952;2023-09-30T03:06:24;9.43;;;2.80;;
10882;SDS011;5494;51.796;10.952;2023-09-30T03:08:53;11.77;;;3.47;;
10882;SDS011;5494;51.796;10.952;2023-09-30T03:11:21;8.90;;;2.27;;
10882;SDS011;5494;51.796;10.952;2023-09-30T03:13:49;11.60;;;3.20;;
10882;SDS011;5494;51.796;10.952;2023-09-30T03:16:18;11.50;;;3.17;;
10882;SDS011;5494;51.796;10.952;2023-09-30T03:18:46;11.20;;;3.43;;
10882;SDS011;5494;51.796;10.952;2023-09-30T03:21:15;7.97;;;2.83;;
10882;SDS011;5494;51.796;10.952;2023-09-30T03:23:45;16.33;;;3.17;;
10882;SDS011;5494;51.796;10.952;2023-09-30T03:26:13;12.60;;;3.33;;
10882;SDS011;5494;51.796;10.952;2023-09-30T03:28:42;8.70;;;2.93;;
10882;SDS011;5494;51.796;10.952;2023-09-30T03:31:10;9.60;;;2.20;;
10882;SDS011;5494;51.796;10.952;2023-09-30T03:33:38;14.77;;;3.33;;
10882;SDS011;5494;51.796;10.952;2023-09-30T03:36:08;10.73;;;2.70;;
10882;SDS011;5494;51.796;10.952;2023-09-30T03:38:37;8.90;;;3.00;;
10882;SDS011;5494;51.796;10.952;2023-09-30T03:41:09;10.37;;;2.80;;
10882;SDS011;5494;51.796;10.952;2023-09-30T03:43:39;9.47;;;2.73;;
10882;SDS011;5494;51.796;10.952;2023-09-30T03:46:08;10.00;;;2.63;;
10882;SDS011;5494;51.796;10.952;2023-09-30T03:48:38;12.50;;;2.90;;
10882;SDS011;5494;51.796;10.952;2023-09-30T03:51:09;11.23;;;3.03;;
10882;SDS011;5494;51.796;10.952;2023-09-30T03:53:40;10.37;;;2.43;;
10882;SDS011;5494;51.796;10.952;2023-09-30T03:56:10;9.77;;;2.97;;
10882;SDS011;5494;51.796;10.952;2023-09-30T03:58:39;8.57;;;3.03;;
10882;SDS011;5494;51.796;10.952;2023-09-30T04:01:08;10.47;;;3.37;;
10882;SDS011;5494;51.796;10.952;2023-09-30T04:03:38;8.77;;;2.37;;
10882;SDS011;5494;51.796;10.952;2023-09-30T04:06:07;12.77;;;3.93;;
10882;SDS011;5494;51.796;10.952;2023-09-30T04:08:35;13.50;;;3.00;;
10882;SDS011;5494;51.796;10.952;2023-09-30T04:11:04;11.70;;;3.27;;
10882;SDS011;5494;51.796;10.952;2023-09-30T04:13:34;12.00;;;2.33;;
10882;SDS011;5494;51.796;10.952;2023-09-30T04:16:03;9.73;;;2.83;;
10882;SDS011;5494;51.796;10.952;2023-09-30T04:18:31;9.67;;;2.83;;
10882;SDS011;5494;51.796;10.952;2023-09-30T04:20:59;12.03;;;2.80;;
10882;SDS011;5494;51.796;10.952;2023-09-30T04:23:28;11.60;;;2.27;;
10882;SDS011;5494;51.796;10.952;2023-09-30T04:25:56;10.63;;;2.47;;
10882;SDS011;5494;51.796;10.952;2023-09-30T04:28:24;9.57;;;3.17;;
10882;SDS011;5494;51.796;10.952;2023-09-30T04:30:54;12.10;;;3.23;;
10882;SDS011;5494;51.796;10.952;2023-09-30T04:33:22;10.60;;;3.00;;
10882;SDS011;5494;51.796;10.952;2023-09-30T04:35:51;10.00;;;2.90;;
10882;SDS011;5494;51.796;10.952;2023-09-30T04:38:19;15.30;;;2.73;;
10882;SDS011;5494;51.796;10.952;2023-09-30T04:40:47;10.00;;;2.93;;
10882;SDS011;5494;51.796;10.952;2023-09-30T04:43:17;16.37;;;2.87;;
10882;SDS011;5494;51.796;10.952;2023-09-30T04:45:45;10.20;;;2.87;;
10882;SDS011;5494;51.796;10.952;2023-09-30T04:48:17;12.33;;;2.73;;
10882;SDS011;5494;51.796;10.952;2023-09-30T04:50:45;14.33;;;2.67;;
10882;SDS011;5494;51.796;10.952;2023-09-30T04:53:13;8.33;;;2.23;;
10882;SDS011;5494;51.796;10.952;2023-09-30T04:55:43;11.23;;;2.30;;
10882;SDS011;5494;51.796;10.952;2023-09-30T04:58:12;10.10;;;2.83;;
10882;SDS011;5494;51.796;10.952;2023-09-30T05:00:40;8.83;;;2.37;;
10882;SDS011;5494;51.796;10.952;2023-09-30T05:03:09;10.10;;;3.20;;
10882;SDS011;5494;51.796;10.952;2023-09-30T05:05:39;10.17;;;2.80;;
10882;SDS011;5494;51.796;10.952;2023-09-30T05:08:07;11.70;;;2.70;;
10882;SDS011;5494;51.796;10.952;2023-09-30T05:10:37;9.27;;;2.53;;
10882;SDS011;5494;51.796;10.952;2023-09-30T05:13:06;11.10;;;2.77;;
10882;SDS011;5494;51.796;10.952;2023-09-30T05:15:34;7.97;;;2.10;;
10882;SDS011;5494;51.796;10.952;2023-09-30T05:18:03;9.50;;;2.87;;
10882;SDS011;5494;51.796;10.952;2023-09-30T05:20:31;9.57;;;2.70;;
10882;SDS011;5494;51.796;10.952;2023-09-30T05:23:04;10.20;;;2.57;;
10882;SDS011;5494;51.796;10.952;2023-09-30T05:25:34;7.73;;;3.23;;
10882;SDS011;5494;51.796;10.952;2023-09-30T05:28:03;8.03;;;2.40;;
10882;SDS011;5494;51.796;10.952;2023-09-30T05:30:32;7.37;;;2.63;;
10882;SDS011;5494;51.796;10.952;2023-09-30T05:33:00;8.47;;;2.37;;
10882;SDS011;5494;51.796;10.952;2023-09-30T05:35:29;12.63;;;2.90;;
10882;SDS011;5494;51.796;10.952;2023-09-30T05:37:58;9.53;;;2.80;;
10882;SDS011;5494;51.796;10.952;2023-09-30T05:40:28;7.23;;;2.40;;
10882;SDS011;5494;51.796;10.952;2023-09-30T05:42:57;12.80;;;3.13;;
10882;SDS011;5494;51.796;10.952;2023-09-30T05:45:26;12.73;;;2.20;;
10882;SDS011;5494;51.796;10.952;2023-09-30T05:48:01;7.73;;;2.13;;
10882;SDS011;5494;51.796;10.952;2023-09-30T05:50:32;7.27;;;1.93;;
10882;SDS011;5494;51.796;10.952;2023-09-30T05:53:03;9.57;;;2.70;;
10882;SDS011;5494;51.796;10.952;2023-09-30T05:55:33;9.50;;;2.40;;
10882;SDS011;5494;51.796;10.952;2023-09-30T05:58:01;7.43;;;2.30;;
10882;SDS011;5494;51.796;10.952;2023-09-30T06:00:29;8.13;;;2.33;;
10882;SDS011;5494;51.796;10.952;2023-09-30T06:03:01;7.90;;;2.70;;
10882;SDS011;5494;51.796;10.952;2023-09-30T06:05:32;7.10;;;2.33;;
10882;SDS011;5494;51.796;10.952;2023-09-30T06:08:03;7.37;;;2.20;;
10882;SDS011;5494;51.796;10.952;2023-09-30T06:10:36;6.93;;;2.40;;
10882;SDS011;5494;51.796;10.952;2023-09-30T06:13:09;8.07;;;2.20;;
10882;SDS011;5494;51.796;10.952;2023-09-30T06:15:37;8.07;;;2.03;;
10882;SDS011;5494;51.796;10.952;2023-09-30T06:18:07;12.83;;;2.37;;
10882;SDS011;5494;51.796;10.952;2023-09-30T06:20:38;7.23;;;2.50;;
10882;SDS011;5494;51.796;10.952;2023-09-30T06:23:07;6.17;;;1.90;;
10882;SDS011;5494;51.796;10.952;2023-09-30T06:25:38;8.60;;;2.53;;
10882;SDS011;5494;51.796;10.952;2023-09-30T06:28:07;6.20;;;1.97;;
10882;SDS011;5494;51.796;10.952;2023-09-30T06:30:35;8.53;;;2.63;;
10882;SDS011;5494;51.796;10.952;2023-09-30T06:33:03;5.80;;;2.13;;
10882;SDS011;5494;51.796;10.952;2023-09-30T06:35:32;9.47;;;2.50;;
10882;SDS011;5494;51.796;10.952;2023-09-30T06:38:04;6.93;;;1.90;;
10882;SDS011;5494;51.796;10.952;2023-09-30T06:40:33;7.27;;;2.17;;
10882;SDS011;5494;51.796;10.952;2023-09-30T06:43:07;6.17;;;2.10;;
10882;SDS011;5494;51.796;10.952;2023-09-30T06:45:35;8.77;;;2.27;;
10882;SDS011;5494;51.796;10.952;2023-09-30T06:48:08;8.40;;;2.23;;
10882;SDS011;5494;51.796;10.952;2023-09-30T06:50:39;7.00;;;2.40;;
10882;SDS011;5494;51.796;10.952;2023-09-30T06:53:11;5.00;;;2.00;;
10882;SDS011;5494;51.796;10.952;2023-09-30T06:55:40;8.60;;;2.13;;
10882;SDS011;5494;51.796;10.952;2023-09-30T06:58:09;7.47;;;2.40;;
10882;SDS011;5494;51.796;10.952;2023-09-30T07:00:38;7.93;;;2.17;;
10882;SDS011;5494;51.796;10.952;2023-09-30T07:03:08;5.93;;;2.57;;
10882;SDS011;5494;51.796;10.952;2023-09-30T07:05:36;8.63;;;1.90;;
10882;SDS011;5494;51.796;10.952;2023-09-30T07:08:05;6.50;;;1.93;;
10882;SDS011;5494;51.796;10.952;2023-09-30T07:10:33;4.97;;;2.37;;
10882;SDS011;5494;51.796;10.952;2023-09-30T07:13:01;9.03;;;2.27;;
10882;SDS011;5494;51.796;10.952;2023-09-30T07:15:31;8.47;;;3.30;;
10882;SDS011;5494;51.796;10.952;2023-09-30T07:18:00;8.20;;;2.30;;
10882;SDS011;5494;51.796;10.952;2023-09-30T07:20:28;4.77;;;2.00;;
10882;SDS011;5494;51.796;10.952;2023-09-30T07:23:02;6.77;;;2.10;;
10882;SDS011;5494;51.796;10.952;2023-09-30T07:25:45;10.07;;;2.50;;
10882;SDS011;5494;51.796;10.952;2023-09-30T07:28:14;12.87;;;2.93;;
10882;SDS011;5494;51.796;10.952;2023-09-30T07:30:44;7.57;;;2.13;;
10882;SDS011;5494;51.796;10.952;2023-09-30T07:33:12;7.87;;;2.47;;
10882;SDS011;5494;51.796;10.952;2023-09-30T07:35:40;5.73;;;2.50;;
10882;SDS011;5494;51.796;10.952;2023-09-30T07:38:09;4.97;;;2.07;;
10882;SDS011;5494;51.796;10.952;2023-09-30T07:40:37;8.07;;;2.57;;
10882;SDS011;5494;51.796;10.952;2023-09-30T07:43:05;6.10;;;2.00;;
10882;SDS011;5494;51.796;10.952;2023-09-30T07:45:33;6.30;;;2.30;;
10882;SDS011;5494;51.796;10.952;2023-09-30T07:48:03;6.37;;;2.10;;
10882;SDS011;5494;51.796;10.952;2023-09-30T07:50:32;7.77;;;2.17;;
10882;SDS011;5494;51.796;10.952;2023-09-30T07:53:00;4.60;;;2.27;;
10882;SDS011;5494;51.796;10.952;2023-09-30T07:55:29;8.43;;;2.50;;
10882;SDS011;5494;51.796;10.952;2023-09-30T07:57:57;8.00;;;2.47;;
10882;SDS011;5494;51.796;10.952;2023-09-30T08:00:26;5.40;;;1.83;;
10882;SDS011;5494;51.796;10.952;2023-09-30T08:02:54;5.67;;;2.17;;
10882;SDS011;5494;51.796;10.952;2023-09-30T08:05:24;6.40;;;2.10;;
10882;SDS011;5494;51.796;10.952;2023-09-30T08:07:52;8.27;;;2.13;;
10882;SDS011;5494;51.796;10.952;2023-09-30T08:10:20;5.13;;;2.03;;
10882;SDS011;5494;51.796;10.952;2023-09-30T08:12:48;7.00;;;2.07;;
10882;SDS011;5494;51.796;10.952;2023-09-30T08:15:17;6.83;;;2.17;;
10882;SDS011;5494;51.796;10.952;2023-09-30T08:17:45;6.33;;;1.97;;
10882;SDS011;5494;51.796;10.952;2023-09-30T08:20:13;7.47;;;2.33;;
10882;SDS011;5494;51.796;10.952;2023-09-30T08:22:43;7.73;;;2.20;;
10882;SDS011;5494;51.796;10.952;2023-09-30T08:25:11;5.23;;;1.60;;
10882;SDS011;5494;51.796;10.952;2023-09-30T08:27:39;7.70;;;2.50;;
10882;SDS011;5494;51.796;10.952;2023-09-30T08:30:08;5.47;;;1.83;;
10882;SDS011;5494;51.796;10.952;2023-09-30T08:32:37;5.07;;;1.80;;
10882;SDS011;5494;51.796;10.952;2023-09-30T08:35:05;6.47;;;2.20;;
10882;SDS011;5494;51.796;10.952;2023-09-30T08:37:36;6.47;;;2.23;;
10882;SDS011;5494;51.796;10.952;2023-09-30T08:40:06;6.40;;;2.30;;
10882;SDS011;5494;51.796;10.952;2023-09-30T08:42:36;7.30;;;2.10;;
10882;SDS011;5494;51.796;10.952;2023-09-30T08:45:08;5.43;;;1.90;;
10882;SDS011;5494;51.796;10.952;2023-09-30T08:47:41;5.70;;;1.83;;
10882;SDS011;5494;51.796;10.952;2023-09-30T08:50:09;4.07;;;1.63;;
10882;SDS011;5494;51.796;10.952;2023-09-30T08:52:38;7.00;;;1.77;;
10882;SDS011;5494;51.796;10.952;2023-09-30T08:55:11;6.97;;;1.97;;
10882;SDS011;5494;51.796;10.952;2023-09-30T08:57:40;7.73;;;2.00;;
10882;SDS011;5494;51.796;10.952;2023-09-30T09:00:10;4.97;;;1.90;;
10882;SDS011;5494;51.796;10.952;2023-09-30T09:02:41;5.37;;;1.97;;
10882;SDS011;5494;51.796;10.952;2023-09-30T09:05:10;3.97;;;1.80;;
10882;SDS011;5494;51.796;10.952;2023-09-30T09:07:38;6.57;;;1.60;;
10882;SDS011;5494;51.796;10.952;2023-09-30T09:10:09;4.83;;;2.20;;
10882;SDS011;5494;51.796;10.952;2023-09-30T09:12:41;5.83;;;2.07;;
10882;SDS011;5494;51.796;10.952;2023-09-30T09:15:20;3.47;;;1.40;;
10882;SDS011;5494;51.796;10.952;2023-09-30T09:17:51;3.90;;;1.80;;
10882;SDS011;5494;51.796;10.952;2023-09-30T09:20:20;4.33;;;2.00;;
10882;SDS011;5494;51.796;10.952;2023-09-30T09:22:52;5.00;;;1.67;;
10882;SDS011;5494;51.796;10.952;2023-09-30T09:25:24;5.17;;;2.23;;
10882;SDS011;5494;51.796;10.952;2023-09-30T09:27:53;9.93;;;2.70;;
10882;SDS011;5494;51.796;10.952;2023-09-30T09:30:22;4.83;;;1.90;;
10882;SDS011;5494;51.796;10.952;2023-09-30T09:32:58;3.83;;;1.77;;
10882;SDS011;5494;51.796;10.952;2023-09-30T09:35:29;5.90;;;2.03;;
10882;SDS011;5494;51.796;10.952;2023-09-30T09:38:00;4.17;;;1.60;;
10882;SDS011;5494;51.796;10.952;2023-09-30T09:40:32;5.70;;;1.70;;
10882;SDS011;5494;51.796;10.952;2023-09-30T09:43:02;5.43;;;1.83;;
10882;SDS011;5494;51.796;10.952;2023-09-30T09:45:33;7.57;;;2.17;;
10882;SDS011;5494;51.796;10.952;2023-09-30T09:48:04;5.53;;;1.70;;
10882;SDS011;5494;51.796;10.952;2023-09-30T09:50:33;6.50;;;1.60;;
10882;SDS011;5494;51.796;10.952;2023-09-30T09:53:04;5.77;;;1.63;;
10882;SDS011;5494;51.796;10.952;2023-09-30T09:55:34;5.63;;;1.90;;
10882;SDS011;5494;51.796;10.952;2023-09-30T09:58:05;3.07;;;1.40;;
10882;SDS011;5494;51.796;10.952;2023-09-30T10:00:36;6.77;;;1.50;;
10882;SDS011;5494;51.796;10.952;2023-09-30T10:03:06;4.50;;;1.37;;
10882;SDS011;5494;51.796;10.952;2023-09-30T10:05:34;5.57;;;1.30;;
10882;SDS011;5494;51.796;10.952;2023-09-30T10:08:07;7.73;;;1.90;;
10882;SDS011;5494;51.796;10.952;2023-09-30T10:10:41;5.97;;;2.00;;
10882;SDS011;5494;51.796;10.952;2023-09-30T10:19:19;4.90;;;1.70;;
10882;SDS011;5494;51.796;10.952;2023-09-30T10:24:49;5.17;;;1.97;;
10882;SDS011;5494;51.796;10.952;2023-09-30T10:27:31;4.63;;;1.57;;
10882;SDS011;5494;51.796;10.952;2023-09-30T10:30:07;3.33;;;1.37;;
10882;SDS011;5494;51.796;10.952;2023-09-30T10:35:42;5.00;;;1.47;;
10882;SDS011;5494;51.796;10.952;2023-09-30T10:41:13;4.50;;;1.80;;
10882;SDS011;5494;51.796;10.952;2023-09-30T10:44:35;6.13;;;1.63;;
10882;SDS011;5494;51.796;10.952;2023-09-30T10:50:04;3.50;;;1.40;;
10882;SDS011;5494;51.796;10.952;2023-09-30T10:53:18;5.27;;;2.07;;
10882;SDS011;5494;51.796;10.952;2023-09-30T10:55:50;2.93;;;1.40;;
10882;SDS011;5494;51.796;10.952;2023-09-30T10:58:29;4.40;;;1.60;;
10882;SDS011;5494;51.796;10.952;2023-09-30T11:01:07;4.40;;;1.40;;
10882;SDS011;5494;51.796;10.952;2023-09-30T11:03:36;4.03;;;1.47;;
10882;SDS011;5494;51.796;10.952;2023-09-30T11:06:06;5.37;;;1.37;;
10882;SDS011;5494;51.796;10.952;2023-09-30T11:08:38;4.90;;;1.77;;
10882;SDS011;5494;51.796;10.952;2023-09-30T11:11:13;4.83;;;1.67;;
10882;SDS011;5494;51.796;10.952;2023-09-30T11:13:41;3.47;;;1.60;;
10882;SDS011;5494;51.796;10.952;2023-09-30T11:16:10;5.03;;;1.70;;
10882;SDS011;5494;51.796;10.952;2023-09-30T11:18:39;4.57;;;1.67;;
10882;SDS011;5494;51.796;10.952;2023-09-30T11:21:09;5.77;;;1.40;;
10882;SDS011;5494;51.796;10.952;2023-09-30T11:23:40;4.63;;;1.57;;
10882;SDS011;5494;51.796;10.952;2023-09-30T11:26:08;11.77;;;1.83;;
10882;SDS011;5494;51.796;10.952;2023-09-30T11:28:37;4.00;;;1.20;;
10882;SDS011;5494;51.796;10.952;2023-09-30T11:31:08;4.37;;;1.30;;
10882;SDS011;5494;51.796;10.952;2023-09-30T11:33:47;4.40;;;1.53;;
10882;SDS011;5494;51.796;10.952;2023-09-30T11:36:20;4.27;;;1.50;;
10882;SDS011;5494;51.796;10.952;2023-09-30T11:38:49;5.77;;;1.50;;
10882;SDS011;5494;51.796;10.952;2023-09-30T11:41:20;3.83;;;1.20;;
10882;SDS011;5494;51.796;10.952;2023-09-30T11:43:58;5.07;;;1.50;;
10882;SDS011;5494;51.796;10.952;2023-09-30T11:46:31;6.83;;;1.90;;
10882;SDS011;5494;51.796;10.952;2023-09-30T11:49:01;3.87;;;1.57;;
10882;SDS011;5494;51.796;10.952;2023-09-30T11:51:43;5.90;;;1.93;;
10882;SDS011;5494;51.796;10.952;2023-09-30T11:54:13;4.63;;;1.50;;
10882;SDS011;5494;51.796;10.952;2023-09-30T11:56:42;4.77;;;1.50;;
10882;SDS011;5494;51.796;10.952;2023-09-30T11:59:11;4.83;;;1.23;;
10882;SDS011;5494;51.796;10.952;2023-09-30T12:01:39;4.90;;;1.70;;
10882;SDS011;5494;51.796;10.952;2023-09-30T12:04:07;5.47;;;1.60;;
10882;SDS011;5494;51.796;10.952;2023-09-30T12:06:37;4.37;;;1.23;;
10882;SDS011;5494;51.796;10.952;2023-09-30T12:09:07;5.07;;;1.50;;
10882;SDS011;5494;51.796;10.952;2023-09-30T12:11:40;4.97;;;1.60;;
10882;SDS011;5494;51.796;10.952;2023-09-30T12:14:11;3.43;;;1.20;;
10882;SDS011;5494;51.796;10.952;2023-09-30T12:16:40;4.63;;;1.43;;
10882;SDS011;5494;51.796;10.952;2023-09-30T12:19:11;3.90;;;1.17;;
10882;SDS011;5494;51.796;10.952;2023-09-30T12:21:42;3.80;;;1.67;;
10882;SDS011;5494;51.796;10.952;2023-09-30T12:24:14;3.77;;;1.60;;
10882;SDS011;5494;51.796;10.952;2023-09-30T12:26:43;4.27;;;1.23;;
10882;SDS011;5494;51.796;10.952;2023-09-30T12:29:14;3.20;;;1.07;;
10882;SDS011;5494;51.796;10.952;2023-09-30T12:31:43;4.57;;;1.40;;
10882;SDS011;5494;51.796;10.952;2023-09-30T12:34:19;4.63;;;1.53;;
10882;SDS011;5494;51.796;10.952;2023-09-30T12:36:49;2.23;;;1.30;;
10882;SDS011;5494;51.796;10.952;2023-09-30T12:39:19;2.90;;;1.20;;
10882;SDS011;5494;51.796;10.952;2023-09-30T12:41:51;4.07;;;1.57;;
10882;SDS011;5494;51.796;10.952;2023-09-30T12:44:20;5.47;;;1.73;;
10882;SDS011;5494;51.796;10.952;2023-09-30T12:46:49;3.47;;;1.30;;
10882;SDS011;5494;51.796;10.952;2023-09-30T12:49:17;4.23;;;1.37;;
10882;SDS011;5494;51.796;10.952;2023-09-30T12:51:46;6.83;;;1.40;;
10882;SDS011;5494;51.796;10.952;2023-09-30T12:54:14;3.37;;;1.30;;
10882;SDS011;5494;51.796;10.952;2023-09-30T12:56:46;5.67;;;1.33;;
10882;SDS011;5494;51.796;10.952;2023-09-30T12:59:14;5.73;;;1.73;;
10882;SDS011;5494;51.796;10.952;2023-09-30T13:01:43;3.60;;;1.07;;
10882;SDS011;5494;51.796;10.952;2023-09-30T13:04:13;4.87;;;1.47;;
10882;SDS011;5494;51.796;10.952;2023-09-30T13:06:42;6.27;;;1.50;;
10882;SDS011;5494;51.796;10.952;2023-09-30T13:09:10;2.77;;;1.30;;
10882;SDS011;5494;51.796;10.952;2023-09-30T13:11:39;6.80;;;1.50;;
10882;SDS011;5494;51.796;10.952;2023-09-30T13:14:09;3.20;;;0.90;;
10882;SDS011;5494;51.796;10.952;2023-09-30T13:16:38;4.67;;;1.93;;
10882;SDS011;5494;51.796;10.952;2023-09-30T13:19:06;4.63;;;1.47;;
10882;SDS011;5494;51.796;10.952;2023-09-30T13:21:34;3.20;;;1.30;;
10882;SDS011;5494;51.796;10.952;2023-09-30T13:24:02;4.13;;;1.50;;
10882;SDS011;5494;51.796;10.952;2023-09-30T13:26:33;4.50;;;1.40;;
10882;SDS011;5494;51.796;10.952;2023-09-30T13:29:01;2.83;;;1.40;;
10882;SDS011;5494;51.796;10.952;2023-09-30T13:31:32;4.93;;;1.40;;
10882;SDS011;5494;51.796;10.952;2023-09-30T13:34:00;5.17;;;1.63;;
10882;SDS011;5494;51.796;10.952;2023-09-30T13:36:30;6.73;;;1.70;;
10882;SDS011;5494;51.796;10.952;2023-09-30T13:38:58;3.87;;;1.70;;
10882;SDS011;5494;51.796;10.952;2023-09-30T13:41:27;3.87;;;1.47;;
10882;SDS011;5494;51.796;10.952;2023-09-30T13:43:55;3.10;;;1.33;;
10882;SDS011;5494;51.796;10.952;2023-09-30T13:46:23;4.20;;;1.53;;
10882;SDS011;5494;51.796;10.952;2023-09-30T13:48:55;3.90;;;1.97;;
10882;SDS011;5494;51.796;10.952;2023-09-30T13:51:24;3.20;;;1.53;;
10882;SDS011;5494;51.796;10.952;2023-09-30T13:53:53;4.10;;;1.27;;
10882;SDS011;5494;51.796;10.952;2023-09-30T13:56:21;3.87;;;1.50;;
10882;SDS011;5494;51.796;10.952;2023-09-30T13:58:49;5.10;;;1.57;;
10882;SDS011;5494;51.796;10.952;2023-09-30T14:01:18;4.33;;;1.80;;
10882;SDS011;5494;51.796;10.952;2023-09-30T14:03:47;3.53;;;1.90;;
10882;SDS011;5494;51.796;10.952;2023-09-30T14:06:17;4.47;;;1.90;;
10882;SDS011;5494;51.796;10.952;2023-09-30T14:08:45;3.80;;;1.67;;
10882;SDS011;5494;51.796;10.952;2023-09-30T14:11:13;3.00;;;1.40;;
10882;SDS011;5494;51.796;10.952;2023-09-30T14:13:41;4.37;;;1.97;;
10882;SDS011;5494;51.796;10.952;2023-09-30T14:16:09;4.60;;;1.60;;
10882;SDS011;5494;51.796;10.952;2023-09-30T14:18:38;3.37;;;1.80;;
10882;SDS011;5494;51.796;10.952;2023-09-30T14:21:06;6.20;;;1.63;;
10882;SDS011;5494;51.796;10.952;2023-09-30T14:23:35;3.77;;;1.70;;
10882;SDS011;5494;51.796;10.952;2023-09-30T14:26:06;5.50;;;2.07;;
10882;SDS011;5494;51.796;10.952;2023-09-30T14:28:37;3.50;;;2.00;;
10882;SDS011;5494;51.796;10.952;2023-09-30T14:31:05;5.50;;;1.90;;
10882;SDS011;5494;51.796;10.952;2023-09-30T14:33:34;3.90;;;1.60;;
10882;SDS011;5494;51.796;10.952;2023-09-30T14:36:02;4.40;;;1.70;;
10882;SDS011;5494;51.796;10.952;2023-09-30T14:38:32;5.20;;;2.17;;
10882;SDS011;5494;51.796;10.952;2023-09-30T14:41:02;4.10;;;1.90;;
10882;SDS011;5494;51.796;10.952;2023-09-30T14:43:35;6.67;;;2.20;;
10882;SDS011;5494;51.796;10.952;2023-09-30T14:46:03;8.03;;;2.50;;
10882;SDS011;5494;51.796;10.952;2023-09-30T14:48:32;7.47;;;2.10;;
10882;SDS011;5494;51.796;10.952;2023-09-30T14:51:00;5.33;;;1.77;;
10882;SDS011;5494;51.796;10.952;2023-09-30T14:53:30;6.37;;;1.80;;
10882;SDS011;5494;51.796;10.952;2023-09-30T14:55:59;4.73;;;2.10;;
10882;SDS011;5494;51.796;10.952;2023-09-30T14:58:28;5.20;;;2.20;;
10882;SDS011;5494;51.796;10.952;2023-09-30T15:00:57;3.53;;;2.00;;
10882;SDS011;5494;51.796;10.952;2023-09-30T15:03:25;5.33;;;2.10;;
10882;SDS011;5494;51.796;10.952;2023-09-30T15:05:59;3.50;;;2.03;;
10882;SDS011;5494;51.796;10.952;2023-09-30T15:08:28;3.40;;;1.97;;
10882;SDS011;5494;51.796;10.952;2023-09-30T15:10:58;5.27;;;2.00;;
10882;SDS011;5494;51.796;10.952;2023-09-30T15:13:26;5.53;;;2.10;;
10882;SDS011;5494;51.796;10.952;2023-09-30T15:15:56;4.97;;;2.10;;
10882;SDS011;5494;51.796;10.952;2023-09-30T15:18:24;6.20;;;2.30;;